Pociūnai Airfield

EYPR · Kaunas, Lithuania

METAR history EYPR · Pociūnai Airfield

Below you see METARs of the last few days. Select a year to browse through older METARs, from the year 2007 onwards.

April 22, 2024

Time Code Weather Temp. Visibility Ceiling Wind METAR/SPECI
08:20
L
1 °C 4.4 km 400 ft 300° 300° 7 kt METAR EYKA 220520Z 30007KT 250V020 4400 -RASN BR OVC004 01/01 Q1009
07:50
I
2 °C 5 km 500 ft 300° 300° 8 kt METAR EYKA 220450Z 30008KT 220V010 5000 -RA BR OVC005 02/01 Q1009
07:20
I
2 °C 4.8 km 700 ft 310° 310° 8 kt METAR EYKA 220420Z 31008KT 220V020 4800 -RA BR OVC007 02/01 Q1010
06:50
I
3 °C 4.3 km 600 ft Var Var 8 kt METAR EYKA 220350Z VRB08KT 4300 RA BR OVC006 03/02 Q1010
06:20
I
3 °C 6 km 600 ft 300° 300° 8 kt METAR EYKA 220320Z 30008KT 190V360 6000 RA OVC006 03/02 Q1010
05:50
I
3 °C 8 km 600 ft 310° 310° 9 kt METAR EYKA 220250Z 31009KT 240V360 8000 -RA OVC006 03/02 Q1010
05:20
I
3 °C 9 km 500 ft 310° 310° 8 kt METAR EYKA 220220Z 31008KT 230V020 9000 -RA OVC005 03/02 Q1010
04:50
I
3 °C 9 km 600 ft 310° 310° 7 kt METAR EYKA 220150Z 31007KT 260V020 9000 -RA OVC006 03/02 Q1011
04:20
I
3 °C 8 km 600 ft 300° 300° 7 kt METAR EYKA 220120Z 30007KT 260V060 8000 -RA BKN006 03/01 Q1011
03:50
I
2 °C 10 km+ 700 ft 310° 310° 6 kt METAR EYKA 220050Z 31006KT 240V010 9999 -RA OVC007 02/01 Q1012
03:20
I
2 °C 8 km 800 ft 300° 300° 7 kt METAR EYKA 220020Z AUTO 30007KT 260V010 8000 -RASN BKN008/// OVC020/// 02/01 Q1012 RERA
02:50
M
2 °C 10 km+ 2,300 ft 310° 310° 5 kt METAR EYKA 212350Z AUTO 31005KT 240V030 9999 -RASN FEW009/// BKN023/// OVC028/// 02/01 Q1013
02:20
M
2 °C 9 km 2,400 ft 310° 310° 6 kt METAR EYKA 212320Z AUTO 31006KT 240V020 9000 -RASN BKN024/// OVC029/// 02/00 Q1014
01:50
M
2 °C 10 km+ 2,700 ft 320° 320° 6 kt METAR EYKA 212250Z AUTO 32006KT 250V020 9999 -RA BKN027/// OVC033/// 02/00 Q1015
01:20
V
2 °C 10 km+ 4,300 ft 310° 310° 6 kt METAR EYKA 212220Z AUTO 31006KT 270V070 9999 -RA FEW033/// BKN043/// OVC050/// 02/M00 Q1015
00:50
V
2 °C 10 km+ 4,700 ft 320° 320° 6 kt METAR EYKA 212150Z AUTO 32006KT 260V040 9999 -RA SCT034/// OVC047/// 02/M00 Q1015
00:20
V
2 °C 10 km+ - 340° 340° 8 kt METAR EYKA 212120Z 34008KT 300V020 9999 -RA NSC 02/M01 Q1015

April 21, 2024

Time Code Weather Temp. Visibility Ceiling Wind METAR/SPECI
23:50
V
3 °C 10 km+ 4,300 ft 330° 330° 9 kt METAR EYKA 212050Z 33009KT 290V360 9999 -DZ FEW031 BKN043 03/M01 Q1016
23:20
V
3 °C 10 km+ - 340° 340° 9 kt METAR EYKA 212020Z 34009KT 300V020 9999 SCT031 03/M01 Q1016
22:50
V
3 °C 10 km+ - 350° 350° 9 kt METAR EYKA 211950Z 35009KT 300V020 9999 FEW032 03/M01 Q1016
22:20
V
4 °C 10 km+ - 350° 350° 8 kt METAR EYKA 211920Z 35008KT 300V020 9999 -RA NSC 04/M00 Q1017
21:50
V
5 °C 10 km+ - 340° 340° 9 kt METAR EYKA 211850Z 34009KT 310V020 9999 -RA NSC 05/M01 Q1017
21:20
V
5 °C 10 km+ - 340° 340° 9 kt METAR EYKA 211820Z 34009KT 280V020 9999 FEW048 05/M01 Q1017
20:50
V
6 °C 10 km+ - 340° 340° 9 kt METAR EYKA 211750Z 34009KT 310V020 9999 -RA NSC 06/00 Q1017
20:20
V
7 °C 10 km+ - 350° 350° 7 kt METAR EYKA 211720Z 35007KT 310V020 9999 -RA FEW041 07/01 Q1017
19:50
V
7 °C 10 km+ - 350° 350° 8 kt METAR EYKA 211650Z 35008KT 320V040 9999 -RA NSC 07/01 Q1017
19:20
V
8 °C 10 km+ - 360° 360° 9 kt METAR EYKA 211620Z 36009KT 330V040 9999 -RA FEW035 08/01 Q1017
18:50
V
8 °C 10 km+ - 360° 360° 8 kt METAR EYKA 211550Z 36008KT 330V030 9999 SCT045 08/01 Q1017
18:20
V
7 °C 10 km+ - 360° 360° 9 kt METAR EYKA 211520Z 36009KT 300V030 9999 -RA NSC 07/01 Q1017
17:50
V
8 °C 10 km+ 4,700 ft 350° 350° 8 kt METAR EYKA 211450Z 35008KT 310V040 9999 -RA FEW035 OVC047 08/01 Q1017
17:20
V
8 °C 10 km+ 3,600 ft 360° 360° 9 kt METAR EYKA 211420Z 36009KT 320V040 9999 -RA OVC036 08/01 Q1017
16:50
V
8 °C 10 km+ 3,300 ft 350° 350° 8 kt METAR EYKA 211350Z 35008KT 310V030 9999 BKN033 08/01 Q1017
16:20
V
8 °C 10 km+ - 350° 350° 10 kt METAR EYKA 211320Z 35010KT 320V020 9999 SCT032 08/01 Q1017
15:50
V
8 °C 10 km+ - 360° 360° 9 kt METAR EYKA 211250Z 36009KT 310V040 9999 SCT035 08/01 Q1018
15:20
V
7 °C 10 km+ 3,500 ft 360° 360° 11 kt METAR EYKA 211220Z 36011KT 320V040 9999 OVC035 07/00 Q1018
14:50
V
7 °C 10 km+ 3,500 ft 360° 360° 11 kt METAR EYKA 211150Z 36011KT 330V030 9999 OVC035 07/01 Q1018
14:20
V
7 °C 10 km+ 3,500 ft 360° 360° 12 kt METAR EYKA 211120Z 36012KT 330V060 9999 OVC035 07/00 Q1018
13:50
V
7 °C 10 km+ 3,600 ft 360° 360° 11 kt METAR EYKA 211050Z 36011KT 320V040 9999 BKN036 07/00 Q1018
13:20
V
6 °C 10 km+ 3,500 ft 010° 010° 11 kt METAR EYKA 211020Z 01011KT 330V070 9999 FEW024 BKN035 06/M00 Q1018
12:50
V
6 °C 10 km+ 3,500 ft 010° 010° 10 kt METAR EYKA 210950Z 01010KT 320V040 9999 OVC035 06/01 Q1019
12:20
V
5 °C 10 km+ 3,300 ft 010° 010° 12 kt METAR EYKA 210920Z 01012KT 330V050 9999 OVC033 05/00 Q1019
11:50
V
5 °C 10 km+ 3,200 ft 360° 360° 12 kt METAR EYKA 210850Z 36012KT 330V050 9999 OVC032 05/01 Q1019
11:20
V
4 °C 10 km+ 3,300 ft 010° 010° 10 kt METAR EYKA 210820Z 01010KT 340V060 9999 SCT018 OVC033 04/00 Q1019
10:50
V
3 °C 10 km+ 3,300 ft 360° 360° 13 kt METAR EYKA 210750Z 36013KT 330V060 9999 FEW016 OVC033 03/M00 Q1019
10:20
V
3 °C 10 km+ 3,300 ft 360° 360° 11 kt METAR EYKA 210720Z 36011KT 320V040 9999 FEW014 BKN033 03/M00 Q1019
09:50
V
2 °C 10 km+ 3,700 ft 010° 010° 11 kt METAR EYKA 210650Z 01011KT 340V040 9999 SCT012 OVC037 02/M00 Q1019
09:20
V
2 °C 10 km+ 3,800 ft 360° 360° 8 kt METAR EYKA 210620Z 36008KT 310V030 9999 SCT012 OVC038 02/M00 Q1019
08:50
V
2 °C 10 km+ 4,100 ft 360° 360° 9 kt METAR EYKA 210550Z 36009KT 330V040 9999 SCT026 OVC041 02/M01 Q1019
08:20
M
2 °C 10 km+ 2,600 ft 010° 010° 8 kt METAR EYKA 210520Z 01008KT 330V050 9999 FEW012 OVC026 02/M01 Q1019
07:50
M
2 °C 10 km+ 2,400 ft 360° 360° 8 kt METAR EYKA 210450Z 36008KT 330V030 9999 OVC024 02/M00 Q1019
07:20
V
1 °C 10 km+ 4,400 ft 010° 010° 7 kt METAR EYKA 210420Z 01007KT 330V040 9999 -SNRA FEW020 SCT027 OVC044 01/M01 Q1019
06:50
M
1 °C 10 km+ 2,700 ft 350° 350° 7 kt METAR EYKA 210350Z 35007KT 320V030 9999 SCT022 OVC027 01/M00 Q1019
06:20
M
2 °C 10 km+ 2,300 ft 010° 010° 8 kt METAR EYKA 210320Z 01008KT 330V040 9999 OVC023 02/M00 Q1019
05:50
M
2 °C 10 km+ 2,100 ft 360° 360° 7 kt METAR EYKA 210250Z 36007KT 330V040 9999 OVC021 02/M00 Q1018
05:20
M
2 °C 10 km+ 2,100 ft 010° 010° 6 kt METAR EYKA 210220Z 01006KT 330V050 9999 FEW007 OVC021 02/01 Q1018
04:50
V
2 °C 9 km - 360° 360° 6 kt METAR EYKA 210150Z 36006KT 330V040 9000 SCT005 02/01 Q1018
04:20
V
2 °C 9 km - 360° 360° 6 kt METAR EYKA 210120Z 36006KT 330V040 9000 FEW006 02/01 Q1018
03:50
V
2 °C 9 km - 360° 360° 5 kt METAR EYKA 210050Z 36005KT 310V030 9000 FEW006 02/01 Q1018
03:20
V
2 °C 9 km 10,000 ft 350° 350° 4 kt METAR EYKA 210020Z AUTO 35004KT 9000 OVC100/// 02/01 Q1017
02:50
V
2 °C 9 km 5,100 ft 360° 360° 4 kt METAR EYKA 202350Z AUTO 36004KT 330V030 9000 FEW044/// BKN051/// OVC100/// 02/01 Q1017
02:20
V
2 °C 10 km+ 10,000 ft 360° 360° 5 kt METAR EYKA 202320Z AUTO 36005KT 330V030 9999 OVC100/// 02/01 Q1017
01:50
V
2 °C 10 km+ - 360° 360° 4 kt METAR EYKA 202250Z AUTO 36004KT 330V030 9999 NCD 02/01 Q1017
01:20
V
2 °C 9 km - 340° 340° 4 kt METAR EYKA 202220Z 34004KT 310V030 9000 NSC 02/01 Q1017
00:50
V
2 °C 10 km+ 4,700 ft 340° 340° 3 kt METAR EYKA 202150Z 34003KT 310V010 9999 OVC047 02/01 Q1017
00:20
V
2 °C 10 km+ 4,800 ft 350° 350° 4 kt METAR EYKA 202120Z 35004KT 320V020 9999 OVC048 02/01 Q1017

April 20, 2024

Time Code Weather Temp. Visibility Ceiling Wind METAR/SPECI
23:50
V
2 °C 10 km+ 4,800 ft 330° 330° 3 kt METAR EYKA 202050Z 33003KT 300V010 9999 OVC048 02/01 Q1016
23:20
V
2 °C 9 km 4,400 ft 340° 340° 3 kt METAR EYKA 202020Z 34003KT 310V010 9000 OVC044 02/01 Q1016
22:50
V
2 °C 9 km 4,000 ft 330° 330° 4 kt METAR EYKA 201950Z 33004KT 9000 BKN040 OVC049 02/01 Q1016
22:20
V
2 °C 10 km+ 4,200 ft 320° 320° 3 kt METAR EYKA 201920Z 32003KT 9999 OVC042 02/01 Q1016
21:50
V
2 °C 9 km 4,100 ft 330° 330° 3 kt METAR EYKA 201850Z 33003KT 290V360 9000 OVC041 02/01 Q1015
21:20
I
2 °C 10 km+ 500 ft Var Var 2 kt METAR EYKA 201820Z VRB02KT 9999 BKN005 OVC038 02/01 Q1015
20:50
I
2 °C 10 km+ 600 ft 050° 050° 3 kt METAR EYKA 201750Z 05003KT 010V070 9999 BKN006 OVC031 02/01 Q1015
20:20
M
2 °C 10 km+ 2,800 ft 020° 020° 3 kt METAR EYKA 201720Z 02003KT 330V070 9999 OVC028 02/01 Q1014
19:50
I
2 °C 10 km+ 600 ft 010° 010° 4 kt METAR EYKA 201650Z 01004KT 330V050 9999 BKN006 OVC022 02/01 Q1014
19:20
I
2 °C 10 km+ 700 ft 360° 360° 5 kt METAR EYKA 201620Z 36005KT 310V040 9999 OVC007 02/01 Q1013
18:50
L
2 °C 10 km+ 400 ft 360° 360° 5 kt METAR EYKA 201550Z 36005KT 320V070 9999 -RA BKN004 OVC006 02/01 Q1013
18:20
L
2 °C 10 km+ 400 ft 350° 350° 6 kt METAR EYKA 201520Z 35006KT 310V030 9999 -RA BKN004 OVC006 02/01 Q1013
17:50
L
2 °C 8 km 400 ft 360° 360° 6 kt METAR EYKA 201450Z 36006KT 330V040 8000 -RASN BKN004 OVC006 02/01 Q1012
17:20
I
1 °C 10 km+ 500 ft 360° 360° 7 kt METAR EYKA 201420Z 36007KT 330V030 9999 -SNRA OVC005 01/00 Q1012
16:50
I
2 °C 10 km+ 500 ft 350° 350° 8 kt METAR EYKA 201350Z 35008KT 320V020 9999 OVC005 02/01 Q1011
16:20
I
1 °C 10 km+ 500 ft 360° 360° 8 kt METAR EYKA 201320Z 36008KT 330V030 9999 -RA OVC005 01/00 Q1011
15:50
L
2 °C 10 km+ 400 ft 360° 360° 6 kt METAR EYKA 201250Z 36006KT 320V030 9999 -RA OVC004 02/01 Q1011
15:20
L
1 °C 9 km 400 ft 360° 360° 5 kt METAR EYKA 201220Z 36005KT 330V040 9000 -RASN OVC004 01/01 Q1010
14:50
L
1 °C 6 km 400 ft 360° 360° 7 kt METAR EYKA 201150Z 36007KT 330V040 6000 -SNRA OVC004 01/00 Q1010
14:20
L
1 °C 9 km 400 ft 360° 360° 6 kt METAR EYKA 201120Z 36006KT 320V030 9000 -RASN OVC004 01/00 Q1009
13:50
L
1 °C 3.4 km 300 ft 350° 350° 4 kt METAR EYKA 201050Z 35004KT 320V030 3400 -SNRA BR OVC003 01/M00 Q1009
13:20
L
1 °C 4.3 km 400 ft 350° 350° 7 kt METAR EYKA 201020Z 35007KT 4300 -SNRA BR OVC004 01/00 Q1008
12:50
L
1 °C 4.7 km 400 ft 350° 350° 7 kt METAR EYKA 200950Z 35007KT 320V030 4700 -RA BR OVC004 01/01 Q1008
12:20
L
2 °C 4.3 km 400 ft 020° 020° 6 kt METAR EYKA 200920Z 02006KT 340V060 4300 -RASN BR OVC004 02/01 Q1008
11:50
I
2 °C 4.5 km 1,700 ft 020° 020° 5 kt METAR EYKA 200850Z 02005KT 350V060 4500 -RA BR FEW006 OVC017 02/01 Q1008
11:20
I
2 °C 6 km 700 ft 040° 040° 3 kt METAR EYKA 200820Z 04003KT 360V070 6000 -RA BKN007 OVC011 02/01 Q1008
10:50
I
2 °C 8 km 900 ft 030° 030° 4 kt METAR EYKA 200750Z 03004KT 350V070 8000 -RA OVC009 02/00 Q1007
10:20
M
2 °C 10 km+ 1,100 ft 040° 040° 4 kt METAR EYKA 200720Z 04004KT 350V070 9999 -RA OVC011 02/00 Q1007
09:50
I
2 °C 10 km+ 900 ft 050° 050° 5 kt METAR EYKA 200650Z 05005KT 020V090 9999 BKN009 BKN015 OVC024 02/M00 Q1007
09:20
M
2 °C 10 km+ 1,000 ft 030° 030° 4 kt METAR EYKA 200620Z 03004KT 350V070 9999 -DZ BKN010 OVC018 02/M00 Q1007
08:50
I
1 °C 10 km+ 900 ft 040° 040° 4 kt METAR EYKA 200550Z 04004KT 340V100 9999 OVC009 01/M01 Q1007
Report a change